createdAt,value
2018-03-15T00:04:05.437Z,99861.20
2018-03-15T00:09:00.363Z,99850.30
2018-03-15T00:13:54.767Z,99845.38
2018-03-15T00:18:49.131Z,99845.33
2018-03-15T00:23:44.246Z,99836.59
2018-03-15T00:28:38.591Z,99839.78
2018-03-15T00:33:34.079Z,99837.59
2018-03-15T00:38:28.474Z,99831.74
2018-03-15T00:43:22.941Z,99821.16
2018-03-15T00:48:17.362Z,99821.65
2018-03-15T00:53:11.792Z,99818.62
2018-03-15T00:58:07.088Z,99816.41
2018-03-15T01:03:01.590Z,99817.28
2018-03-15T01:07:56.054Z,99807.24
2018-03-15T01:12:51.252Z,99809.14
2018-03-15T01:17:45.991Z,99796.61
2018-03-15T01:22:44.045Z,99779.20
2018-03-15T01:27:38.404Z,99784.11
2018-03-15T01:32:33.234Z,99794.19
2018-03-15T01:37:28.056Z,99762.60
2018-03-15T01:42:22.389Z,99756.55
2018-03-15T01:47:17.026Z,99756.63
2018-03-15T01:52:12.359Z,99748.06
2018-03-15T01:57:08.677Z,99738.08
2018-03-15T02:02:03.363Z,99723.75
2018-03-15T02:06:57.728Z,99722.61
2018-03-15T02:11:53.161Z,99718.55
2018-03-15T02:16:47.749Z,99712.14
2018-03-15T02:21:42.325Z,99696.08
2018-03-15T02:26:37.020Z,99698.58
2018-03-15T02:31:31.676Z,99678.10
2018-03-15T02:36:26.212Z,99674.20
2018-03-15T02:41:20.740Z,99679.95
2018-03-15T02:46:15.133Z,99663.84
2018-03-15T02:51:09.620Z,99663.09
2018-03-15T02:56:03.963Z,99648.11
2018-03-15T03:00:58.324Z,99635.87
2018-03-15T03:05:53.434Z,99643.83
2018-03-15T03:10:48.732Z,99633.36
2018-03-15T03:15:43.202Z,99622.21
2018-03-15T03:20:37.586Z,99612.63
2018-03-15T03:25:32.946Z,99618.81
2018-03-15T03:30:27.952Z,99606.39
2018-03-15T03:35:23.118Z,99619.02
2018-03-15T03:40:17.622Z,99609.41
2018-03-15T03:45:12.780Z,99598.38
2018-03-15T03:50:07.144Z,99580.18
2018-03-15T03:55:01.601Z,99575.82
2018-03-15T03:59:56.528Z,99564.74
2018-03-15T04:04:50.926Z,99565.66
2018-03-15T04:09:45.236Z,99539.44
2018-03-15T04:14:39.646Z,99534.91
2018-03-15T04:19:34.219Z,99533.63
2018-03-15T04:24:28.798Z,99530.17
2018-03-15T04:29:23.954Z,99519.88
2018-03-15T04:34:18.546Z,99524.76
2018-03-15T04:39:13.026Z,99496.99
2018-03-15T04:44:08.443Z,99495.93
2018-03-15T04:49:02.845Z,99487.27
2018-03-15T04:53:57.274Z,99484.77
2018-03-15T04:58:52.420Z,99480.65
2018-03-15T05:03:47.764Z,99477.23
2018-03-15T05:08:43.174Z,99451.59
2018-03-15T05:13:37.508Z,99451.70
2018-03-15T05:18:31.903Z,99454.66
2018-03-15T05:23:26.241Z,99446.97
2018-03-15T05:28:21.613Z,99443.55
2018-03-15T05:33:15.915Z,99438.94
2018-03-15T05:38:10.229Z,99442.28
2018-03-15T05:43:04.543Z,99432.23
2018-03-15T05:47:58.849Z,99424.10
2018-03-15T05:52:53.140Z,99439.98
2018-03-15T05:57:47.462Z,99417.52
2018-03-15T06:02:42.193Z,99413.76
2018-03-15T06:07:37.306Z,99415.09
2018-03-15T06:12:31.758Z,99413.59
2018-03-15T06:17:26.072Z,99422.13
2018-03-15T06:22:20.368Z,99425.52
2018-03-15T06:27:14.774Z,99436.09
2018-03-15T06:32:09.223Z,99418.68
2018-03-15T06:37:04.308Z,99422.98
2018-03-15T06:41:58.631Z,99414.59
2018-03-15T06:46:53.133Z,99408.41
2018-03-15T06:51:47.514Z,99408.83
2018-03-15T06:56:41.901Z,99397.53
2018-03-15T07:01:36.215Z,99402.55
2018-03-15T07:06:30.616Z,99391.06
2018-03-15T07:11:25.104Z,99394.19
2018-03-15T07:16:19.418Z,99382.67
2018-03-15T07:21:14.883Z,99394.55
2018-03-15T07:26:09.988Z,99382.55
2018-03-15T07:31:04.624Z,99371.31
2018-03-15T07:35:59.702Z,99368.23
2018-03-15T07:40:54.021Z,99374.22
2018-03-15T07:45:50.781Z,99372.73
2018-03-15T07:50:45.261Z,99372.27
2018-03-15T07:55:39.803Z,99380.00
2018-03-15T08:00:35.243Z,99370.87
2018-03-15T08:05:30.322Z,99363.70
2018-03-15T08:10:24.641Z,99356.03
2018-03-15T08:15:19.014Z,99358.55
2018-03-15T08:20:13.320Z,99353.27
2018-03-15T08:25:08.138Z,99348.20
2018-03-15T08:30:02.891Z,99334.73
2018-03-15T08:34:57.986Z,99334.78
2018-03-15T08:39:52.303Z,99332.41
2018-03-15T08:44:46.644Z,99323.28
2018-03-15T08:49:41.138Z,99317.14
2018-03-15T08:54:35.451Z,99307.50
2018-03-15T08:59:29.774Z,99297.71
2018-03-15T09:04:24.229Z,99284.63
2018-03-15T09:09:18.700Z,99279.84
2018-03-15T09:14:13.385Z,99276.41
2018-03-15T09:19:07.932Z,99263.88
2018-03-15T09:24:03.166Z,99265.59
2018-03-15T09:28:58.179Z,99255.56
2018-03-15T09:33:53.390Z,99250.97
2018-03-15T09:38:48.252Z,99261.92
2018-03-15T09:43:42.819Z,99245.77
2018-03-15T09:48:37.310Z,99244.25
2018-03-15T09:53:32.591Z,99247.97
2018-03-15T09:58:27.104Z,99240.45
2018-03-15T10:03:21.608Z,99217.03
2018-03-15T10:08:16.116Z,99217.73
2018-03-15T10:13:10.842Z,99222.43
2018-03-15T10:18:05.628Z,99221.75
2018-03-15T10:23:00.269Z,99217.23
2018-03-15T10:27:54.852Z,99214.67
2018-03-15T10:32:55.285Z,99209.99
2018-03-15T10:37:49.769Z,99216.22
2018-03-15T10:42:45.068Z,99200.61
2018-03-15T10:47:39.576Z,99195.95
2018-03-15T10:52:34.060Z,99197.64
2018-03-15T10:57:28.576Z,99190.86
2018-03-15T11:18:10.870Z,99194.66
2018-03-15T11:23:04.892Z,99180.48
2018-03-15T11:27:59.226Z,99179.80
2018-03-15T11:32:53.801Z,99177.09
2018-03-15T11:37:48.329Z,99185.52
2018-03-15T11:42:42.847Z,99167.20
2018-03-15T11:47:38.116Z,99172.59
2018-03-15T11:52:32.722Z,99173.55
2018-03-15T11:57:27.225Z,99162.39
2018-03-15T12:02:21.725Z,99160.63
2018-03-15T12:07:16.215Z,99149.20
2018-03-15T12:12:10.768Z,99152.01
2018-03-15T12:17:05.893Z,99146.32
2018-03-15T12:22:00.392Z,99161.92
2018-03-15T12:26:54.794Z,99144.20
2018-03-15T12:31:49.106Z,99124.58
2018-03-15T12:36:43.306Z,99122.56
2018-03-15T12:41:38.417Z,99114.41
2018-03-15T12:46:32.752Z,99127.89
2018-03-15T12:51:27.845Z,99108.91
2018-03-15T12:56:22.140Z,99092.73
2018-03-15T13:01:16.454Z,99088.25
2018-03-15T13:06:11.550Z,99092.73
2018-03-15T13:11:05.868Z,99078.12
2018-03-15T13:16:00.327Z,99077.02
2018-03-15T13:20:54.659Z,99062.73
2018-03-15T13:25:49.129Z,99061.30
2018-03-15T13:30:43.436Z,99054.63
2018-03-15T13:35:38.010Z,99050.80
2018-03-15T13:40:33.068Z,99042.29
2018-03-15T13:45:27.364Z,99042.88
2018-03-15T13:50:21.688Z,99051.23
2018-03-15T13:55:16.004Z,99043.78
2018-03-15T14:00:10.374Z,99044.28
2018-03-15T14:05:04.672Z,99038.73
2018-03-15T14:09:58.965Z,99031.84
2018-03-15T14:14:53.261Z,99024.22
2018-03-15T14:19:47.574Z,99040.87
2018-03-15T14:24:42.372Z,99022.27
2018-03-15T14:29:37.059Z,99016.55
2018-03-15T14:34:31.549Z,99015.06
2018-03-15T14:39:26.634Z,99008.27
2018-03-15T14:44:20.984Z,99014.36
2018-03-15T14:49:16.158Z,99027.63
2018-03-15T14:54:10.511Z,99043.55
2018-03-15T14:59:04.988Z,99028.13
2018-03-15T15:04:00.286Z,99030.50
2018-03-15T15:08:54.610Z,99029.89
2018-03-15T15:13:48.920Z,99031.88
2018-03-15T15:18:43.360Z,99035.79
2018-03-15T15:23:37.683Z,99043.86
2018-03-15T15:28:32.287Z,99048.55
2018-03-15T15:33:26.862Z,99046.47
2018-03-15T15:38:22.030Z,99044.38
2018-03-15T15:43:16.667Z,99049.05
2018-03-15T15:48:11.052Z,99054.39
2018-03-15T15:53:06.461Z,99054.97
2018-03-15T15:58:02.006Z,99067.08
2018-03-15T16:02:56.650Z,99065.38
2018-03-15T16:07:51.889Z,99073.76
2018-03-15T16:12:46.758Z,99074.33
2018-03-15T16:17:41.965Z,99065.31
2018-03-15T16:22:36.480Z,99082.28
2018-03-15T16:27:31.382Z,99085.83
2018-03-15T16:32:26.153Z,99092.40
2018-03-15T16:37:20.467Z,99090.27
2018-03-15T16:42:15.570Z,99088.73
2018-03-15T16:47:09.958Z,99095.92
2018-03-15T16:52:04.313Z,99091.03
2018-03-15T16:56:58.846Z,99097.84
2018-03-15T17:01:53.659Z,99087.80
2018-03-15T17:06:48.016Z,99084.73
2018-03-15T17:11:43.316Z,99071.13
2018-03-15T17:16:38.453Z,99074.96
2018-03-15T17:21:33.219Z,99073.70
2018-03-15T17:26:27.745Z,99093.45
2018-03-15T17:31:22.399Z,99090.72
2018-03-15T17:36:16.849Z,99106.96
2018-03-15T17:41:12.801Z,99121.48
2018-03-15T17:46:07.122Z,99137.95
2018-03-15T17:51:02.412Z,99154.95
2018-03-15T17:55:56.876Z,99158.66
2018-03-15T18:00:51.712Z,99173.16
2018-03-15T18:05:46.272Z,99195.55
2018-03-15T18:10:40.633Z,99177.31
2018-03-15T18:15:35.104Z,99193.06
2018-03-15T18:20:29.753Z,99196.42
2018-03-15T18:25:24.116Z,99196.13
2018-03-15T18:30:18.469Z,99206.64
2018-03-15T18:35:12.869Z,99201.81
2018-03-15T18:40:07.679Z,99207.27
2018-03-15T18:45:02.603Z,99209.35
2018-03-15T18:49:57.817Z,99216.20
2018-03-15T18:54:52.161Z,99217.63
2018-03-15T18:59:47.390Z,99216.61
2018-03-15T19:04:41.683Z,99215.17
2018-03-15T19:09:36.903Z,99222.56
2018-03-15T19:14:31.982Z,99224.72
2018-03-15T19:19:26.874Z,99219.98
2018-03-15T19:24:21.195Z,99225.16
2018-03-15T19:29:15.505Z,99226.01
2018-03-15T19:34:09.811Z,99223.84
2018-03-15T19:39:04.904Z,99224.91
2018-03-15T19:43:59.038Z,99226.94
2018-03-15T19:48:53.359Z,99225.20
2018-03-15T19:53:48.462Z,99220.84
2018-03-15T19:58:43.844Z,99219.10
2018-03-15T20:03:38.449Z,99219.27
2018-03-15T20:08:32.797Z,99218.50
2018-03-15T20:13:28.142Z,99222.06
2018-03-15T20:18:23.223Z,99226.91
2018-03-15T20:23:22.826Z,99232.30
2018-03-15T20:28:22.572Z,99229.24
2018-03-15T20:33:22.727Z,99230.67
2018-03-15T20:38:17.915Z,99232.19
2018-03-15T20:43:12.298Z,99231.45
2018-03-15T20:48:11.944Z,99232.19
2018-03-15T20:53:06.367Z,99237.08
2018-03-15T20:58:00.875Z,99227.53
2018-03-15T21:02:55.186Z,99216.97
2018-03-15T21:07:49.499Z,99226.94
2018-03-15T21:12:44.778Z,99223.99
2018-03-15T21:17:39.501Z,99228.66
2018-03-15T21:22:34.814Z,99234.66
2018-03-15T21:27:29.286Z,99233.49
2018-03-15T21:32:23.820Z,99236.75
2018-03-15T21:37:18.126Z,99234.12
2018-03-15T21:42:12.438Z,99233.89
2018-03-15T21:47:06.737Z,99237.55
2018-03-15T21:52:01.056Z,99231.67
2018-03-15T21:56:55.390Z,99231.91
2018-03-15T22:01:50.454Z,99232.14
2018-03-15T22:06:45.219Z,99232.30
2018-03-15T22:11:39.626Z,99231.41
2018-03-15T22:16:34.716Z,99235.33
2018-03-15T22:21:29.798Z,99232.61
2018-03-15T22:26:24.247Z,99235.09
2018-03-15T22:31:19.915Z,99230.64
2018-03-15T22:36:14.310Z,99233.77
2018-03-15T22:41:08.655Z,99229.93
2018-03-15T22:46:02.516Z,99220.94
2018-03-15T22:50:56.858Z,99218.10
2018-03-15T22:55:51.162Z,99223.25
2018-03-15T23:00:45.478Z,99230.86
2018-03-15T23:05:41.325Z,99230.27
2018-03-15T23:10:35.873Z,99230.42
2018-03-15T23:15:30.338Z,99231.94
2018-03-15T23:20:25.514Z,99235.04
2018-03-15T23:25:19.609Z,99232.63
2018-03-15T23:30:13.919Z,99238.80
2018-03-15T23:35:08.288Z,99235.93
2018-03-15T23:40:02.742Z,99238.81
2018-03-15T23:44:57.050Z,99235.75
2018-03-15T23:49:52.063Z,99238.11
2018-03-15T23:54:46.531Z,99240.86
2018-03-15T23:59:41.244Z,99246.13
